This is the latest recevied weather packets stored in our database for station/object N7CW. If no packets are shown the sender has not sent any weather packets the latest 10 day(s).
| Time | Temp. | Humidity | Pressure | Rain* | Wind** | Luminosity | Snow |
|---|---|---|---|---|---|---|---|
| 1777997637 | 9.44° C | 57% | 1013.1 hPa | 0 mm | - | 196 W/m² | - |
| 1777997334 | 9.44° C | 57% | 1013.1 hPa | 0 mm | - | 211 W/m² | - |
| 1777997033 | 10° C | 57% | 1013.1 hPa | 0 mm | - | 217 W/m² | - |
| 1777996729 | 10.56° C | 56% | 1012.8 hPa | 0 mm | - | 474 W/m² | - |
| 1777996425 | 11.11° C | 54% | 1013.1 hPa | 0 mm | - | 559 W/m² | - |
| 1777996122 | 10.56° C | 55% | 1012.9 hPa | 0 mm | - | 651 W/m² | - |
| 1777995818 | 10.56° C | 57% | 1012.8 hPa | 0 mm | - | 602 W/m² | - |
| 1777995514 | 10.56° C | 57% | 1013.1 hPa | 0 mm | - | 174 W/m² | - |
| 1777995211 | 11.11° C | 55% | 1012.9 hPa | 0 mm | - | 350 W/m² | - |
| 1777994909 | 10° C | 57% | 1013.1 hPa | 0 mm | - | 550 W/m² | - |
| 1777994606 | 10.56° C | 56% | 1012.8 hPa | 0 mm | - | 518 W/m² | - |
| 1777994306 | 11.11° C | 57% | 1012.6 hPa | 0 mm | - | 505 W/m² | - |
| 1777994003 | 11.11° C | 54% | 1012.6 hPa | 0 mm | - | 473 W/m² | - |
| 1777993699 | 10° C | 58% | 1012.9 hPa | 0 mm | - | 374 W/m² | - |
| 1777993396 | 10° C | 57% | 1012.8 hPa | 0 mm | - | 224 W/m² | - |
| 1777993091 | 9.44° C | 59% | 1012.7 hPa | 0 mm | - | 262 W/m² | - |
| 1777992790 | 10° C | 58% | 1012.8 hPa | 0 mm | - | 209 W/m² | - |
| 1777992487 | 9.44° C | 59% | 1012.8 hPa | 0 mm | - | 217 W/m² | - |
| 1777992185 | 8.89° C | 60% | 1012.8 hPa | 0 mm | - | 157 W/m² | - |
| 1777991882 | 8.89° C | 59% | 1013.1 hPa | 0 mm | - | 178 W/m² | - |
| 1777991579 | 8.89° C | 60% | 1012.9 hPa | 0 mm | - | 181 W/m² | - |
| 1777991276 | 9.44° C | 60% | 1012.8 hPa | 0 mm | - | 174 W/m² | - |
| 1777990973 | 8.33° C | 63% | 1012.8 hPa | 0 mm | - | 183 W/m² | - |
| 1777990671 | 8.33° C | 62% | 1012.8 hPa | 0 mm | - | 115 W/m² | - |
| 1777990368 | 8.89° C | 61% | 1012.6 hPa | 0 mm | - | 111 W/m² | - |
* Rain latest hour (hover to see other rain measurements)
** Current wind speed in m/s (hover to see current wind gust speed)